Time;durP1;ratioP1;P1;durP2;ratioP2;P2;SDS_P1;SDS_P2;PMS_P1;PMS_P2;Temp;Humidity;BMP_temperature;BMP_pressure;BME280_temperature;BME280_humidity;BME280_pressure;Samples;Min_cycle;Max_cycle;Signal;HPM_P1;HPM_P2
2021/06/09 00:00:45;;;;;;;9.85;9.23;;;;;;;15.30;92.25;96961.72;5116488;28;20399;-74
2021/06/09 00:03:11;;;;;;;9.32;8.73;;;;;;;15.31;92.45;96960.69;5117049;28;20042;-75
2021/06/09 00:05:37;;;;;;;55.42;14.10;;;;;;;15.28;92.10;96961.13;5116619;28;20480;-75
2021/06/09 00:08:04;;;;;;;12.98;11.95;;;;;;;15.18;92.31;96972.34;5115352;28;20035;-74
2021/06/09 00:10:30;;;;;;;10.73;10.02;;;;;;;15.14;92.93;96963.28;5115988;28;20055;-76
2021/06/09 00:12:56;;;;;;;10.18;9.48;;;;;;;15.13;93.21;96966.94;5116522;28;20042;-74
2021/06/09 00:15:22;;;;;;;9.60;9.00;;;;;;;15.15;93.61;96964.84;5116411;28;20043;-74
2021/06/09 00:17:49;;;;;;;10.18;9.57;;;;;;;15.16;94.11;96960.38;5116401;28;20032;-74
2021/06/09 00:20:19;;;;;;;9.02;8.52;;;;;;;15.14;93.89;96963.28;5115749;28;20058;-75
2021/06/09 00:22:46;;;;;;;9.05;8.55;;;;;;;15.16;93.92;96957.72;5104876;28;20049;-74
2021/06/09 00:25:15;;;;;;;8.00;7.50;;;;;;;15.17;93.87;96964.63;5116434;28;20047;-73
2021/06/09 00:27:43;;;;;;;8.18;7.70;;;;;;;15.14;93.78;96957.97;5115177;28;20032;-75
2021/06/09 00:30:16;;;;;;;7.68;7.28;;;;;;;15.14;93.85;96960.63;5116205;28;20708;-75
2021/06/09 00:32:43;;;;;;;9.15;8.57;;;;;;;15.12;93.71;96959.22;5116686;28;20027;-74
2021/06/09 00:35:10;;;;;;;8.55;8.05;;;;;;;15.09;94.35;96965.78;5115864;28;20055;-74
2021/06/09 00:37:36;;;;;;;8.43;7.93;;;;;;;15.09;94.62;96970.28;5116095;28;20039;-74
2021/06/09 00:40:06;;;;;;;8.02;7.53;;;;;;;15.08;94.59;96953.63;5115653;28;20051;-75
2021/06/09 00:42:32;;;;;;;8.20;7.70;;;;;;;15.11;94.70;96949.72;5115915;28;20043;-74
2021/06/09 00:44:58;;;;;;;8.65;7.90;;;;;;;15.12;94.47;96954.78;5116415;28;20039;-74
2021/06/09 00:47:25;;;;;;;7.63;7.22;;;;;;;15.15;94.60;96958.78;5115545;27;20055;-74
2021/06/09 00:49:52;;;;;;;7.70;7.20;;;;;;;15.17;94.53;96959.34;5116273;28;20043;-74
2021/06/09 00:52:28;;;;;;;7.75;7.35;;;;;;;15.15;94.56;96958.78;5115631;27;20031;-73
2021/06/09 00:54:55;;;;;;;7.47;7.05;;;;;;;15.14;94.29;96957.16;5115652;28;20460;-75
2021/06/09 00:57:24;;;;;;;7.47;7.07;;;;;;;15.11;94.55;96955.00;5116451;28;20467;-75
2021/06/09 00:59:50;;;;;;;7.63;7.22;;;;;;;15.09;94.28;96952.59;5115678;28;20036;-75
2021/06/09 01:02:16;;;;;;;6.60;6.20;;;;;;;15.07;94.08;96953.84;5115110;28;20048;-75
2021/06/09 01:04:42;;;;;;;7.00;6.60;;;;;;;15.06;94.27;96946.97;5115772;28;20039;-75
2021/06/09 01:07:10;;;;;;;6.72;6.32;;;;;;;15.04;94.03;96949.06;5115853;28;20380;-77
2021/06/09 01:09:36;;;;;;;6.60;6.20;;;;;;;15.02;93.97;96954.56;5097228;28;20387;-75
2021/06/09 01:12:03;;;;;;;6.65;6.15;;;;;;;14.99;94.04;96945.28;5113990;28;20047;-75
2021/06/09 01:14:30;;;;;;;6.60;6.20;;;;;;;14.98;93.94;96938.38;5115586;28;20031;-73
2021/06/09 01:16:56;;;;;;;5.97;5.68;;;;;;;14.95;93.85;96938.84;5115664;28;20046;-74
2021/06/09 01:19:22;;;;;;;5.75;5.45;;;;;;;14.96;93.81;96950.22;5114826;28;20046;-74
2021/06/09 01:21:49;;;;;;;6.00;5.65;;;;;;;14.94;93.83;96952.28;5113790;28;20502;-74
2021/06/09 01:24:16;;;;;;;6.28;5.82;;;;;;;14.93;93.84;96948.03;5115212;28;20046;-74
2021/06/09 01:26:44;;;;;;;6.90;6.43;;;;;;;14.90;94.22;96943.22;5115211;28;20039;-74
2021/06/09 01:29:10;;;;;;;7.45;6.85;;;;;;;14.89;93.99;96949.53;5114500;28;20055;-74
2021/06/09 01:31:37;;;;;;;7.32;6.82;;;;;;;14.85;93.98;96946.56;5115003;28;20058;-73
2021/06/09 01:34:05;;;;;;;6.53;6.03;;;;;;;14.84;94.16;96955.50;5113890;28;20043;-73
2021/06/09 01:36:40;;;;;;;8.13;7.63;;;;;;;14.82;94.04;96957.56;5114348;27;20051;-74
2021/06/09 01:39:10;;;;;;;6.63;6.13;;;;;;;14.77;93.94;96954.84;5114992;28;20043;-73
2021/06/09 01:41:48;;;;;;;6.90;6.50;;;;;;;14.74;94.21;96948.19;5114201;28;20070;-73
2021/06/09 01:44:14;;;;;;;6.43;6.10;;;;;;;14.72;94.21;96947.63;5115237;28;20058;-73
2021/06/09 01:46:42;;;;;;;6.45;6.05;;;;;;;14.73;94.14;96956.34;5115124;28;20044;-74
2021/06/09 01:49:10;;;;;;;5.93;5.63;;;;;;;14.72;94.09;96944.16;5114254;27;20411;-74
2021/06/09 01:51:37;;;;;;;6.18;5.68;;;;;;;14.72;94.09;96944.97;5114429;27;20038;-74
2021/06/09 01:54:06;;;;;;;6.13;5.72;;;;;;;14.71;93.88;96946.00;5115211;28;20475;-73
2021/06/09 01:56:32;;;;;;;5.47;5.18;;;;;;;14.70;93.91;96946.22;5114732;28;20032;-74
2021/06/09 01:59:10;;;;;;;5.68;5.38;;;;;;;14.68;93.57;96935.91;5114076;28;20040;-73
2021/06/09 02:01:37;;;;;;;5.75;5.35;;;;;;;14.66;93.57;96939.78;5114331;27;20403;-75
2021/06/09 02:04:03;;;;;;;6.65;6.25;;;;;;;14.62;93.46;96942.13;5114507;28;20044;-73
2021/06/09 02:06:30;;;;;;;6.47;6.07;;;;;;;14.58;93.57;96933.06;5114539;28;20038;-73
2021/06/09 02:08:56;;;;;;;5.95;5.55;;;;;;;14.57;93.71;96939.34;5112384;28;20499;-73
2021/06/09 02:11:22;;;;;;;5.20;4.90;;;;;;;14.56;93.70;96930.63;5114339;28;20040;-73
2021/06/09 02:13:50;;;;;;;5.32;5.00;;;;;;;14.57;93.45;96926.16;5114108;28;20487;-75
2021/06/09 02:16:16;;;;;;;5.43;5.05;;;;;;;14.55;93.23;96925.56;5113910;27;20035;-76
2021/06/09 02:18:42;;;;;;;5.43;5.13;;;;;;;14.52;93.14;96928.66;5113708;28;20047;-74
2021/06/09 02:21:08;;;;;;;5.45;5.05;;;;;;;14.50;92.89;96930.72;5114177;27;20043;-73
2021/06/09 02:23:35;;;;;;;5.32;4.93;;;;;;;14.49;92.88;96931.75;5113899;28;20035;-74
2021/06/09 02:26:02;;;;;;;4.85;4.63;;;;;;;14.48;92.85;96935.44;5112501;28;20044;-74
2021/06/09 02:28:31;;;;;;;5.93;5.50;;;;;;;14.46;92.94;96937.50;5112372;28;20101;-75
2021/06/09 02:30:58;;;;;;;9.13;8.35;;;;;;;14.41;92.93;96931.06;5114008;28;20032;-75
2021/06/09 02:33:26;;;;;;;9.55;8.73;;;;;;;14.36;93.08;96932.78;5113669;28;20044;-75
2021/06/09 02:35:54;;;;;;;6.72;6.25;;;;;;;14.32;93.41;96935.09;5114104;28;20059;-74
2021/06/09 02:38:21;;;;;;;7.68;7.07;;;;;;;14.31;93.72;96925.56;5113170;28;20055;-75
2021/06/09 02:40:51;;;;;;;8.27;7.72;;;;;;;14.28;93.79;96922.56;5113778;28;20028;-75
2021/06/09 02:43:19;;;;;;;8.00;7.40;;;;;;;14.20;93.74;96924.53;5113670;28;20027;-75
2021/06/09 02:45:49;;;;;;;6.72;6.20;;;;;;;14.20;94.29;96923.75;5113321;28;20046;-75
2021/06/09 02:48:19;;;;;;;6.82;6.32;;;;;;;14.22;94.40;96924.31;5113340;28;20062;-76
2021/06/09 02:50:45;;;;;;;6.55;6.05;;;;;;;14.26;94.62;96925.47;5113702;28;20483;-75
2021/06/09 02:53:23;;;;;;;6.00;5.60;;;;;;;14.28;94.81;96933.97;5112967;28;20048;-75
2021/06/09 02:56:13;;;;;;;6.35;5.85;;;;;;;14.32;94.74;96931.63;5113537;27;20035;-75
2021/06/09 02:58:58;;;;;;;6.80;6.40;;;;;;;14.33;95.08;96928.00;5113769;28;20031;-75
2021/06/09 03:01:33;;;;;;;6.20;5.80;;;;;;;14.32;94.54;96927.19;5105962;28;20490;-74
2021/06/09 03:04:11;;;;;;;6.60;6.20;;;;;;;14.32;94.35;96921.91;5113223;28;20034;-75
2021/06/09 03:06:57;;;;;;;7.20;6.55;;;;;;;14.25;93.97;96929.13;5113522;28;20047;-74
2021/06/09 03:09:30;;;;;;;11.57;6.35;;;;;;;14.11;93.44;96927.72;5101764;28;20043;-74
2021/06/09 03:12:10;;;;;;;6.70;6.30;;;;;;;13.97;93.82;96927.16;5112816;28;20043;-74
2021/06/09 03:17:35;;;;;;;7.50;7.00;;;;;;;13.90;94.61;96927.28;5113405;28;20522;-74
2021/06/09 03:20:27;;;;;;;54.15;11.23;;;;;;;13.85;94.44;96928.97;5113161;28;20502;-74
2021/06/09 03:23:08;;;;;;;10.77;7.18;;;;;;;13.75;94.81;96932.97;5099779;28;20035;-78
2021/06/09 03:26:10;;;;;;;7.05;6.45;;;;;;;13.72;95.66;96936.03;5112879;28;20068;-73
2021/06/09 03:28:46;;;;;;;6.78;6.38;;;;;;;13.74;95.74;96930.56;5098531;28;20428;-73
2021/06/09 03:31:22;;;;;;;6.18;5.88;;;;;;;13.77;96.02;96930.09;5113618;28;20035;-74
2021/06/09 03:33:52;;;;;;;6.45;6.15;;;;;;;13.80;95.98;96925.19;5114668;28;20034;-73
2021/06/09 03:36:25;;;;;;;7.30;6.90;;;;;;;13.85;95.92;96929.78;5117451;28;20054;-74
2021/06/09 03:38:56;;;;;;;6.28;5.93;;;;;;;13.88;95.90;96926.69;5117160;28;20530;-74
2021/06/09 03:41:29;;;;;;;6.63;6.22;;;;;;;13.92;95.76;96922.56;5116763;28;20038;-74
2021/06/09 03:43:56;;;;;;;5.75;5.45;;;;;;;13.95;95.66;96923.94;5117718;28;20030;-75
2021/06/09 03:46:24;;;;;;;5.53;5.20;;;;;;;13.97;95.50;96921.88;5117095;28;20035;-75
2021/06/09 03:48:53;;;;;;;5.28;4.97;;;;;;;13.98;95.33;96926.13;5116980;28;20051;-74
2021/06/09 03:51:22;;;;;;;5.63;5.32;;;;;;;14.01;95.27;96933.59;5115798;28;20043;-74
2021/06/09 03:53:49;;;;;;;5.78;5.38;;;;;;;14.02;95.35;96928.06;5116591;28;20046;-73
2021/06/09 03:56:18;;;;;;;6.25;5.90;;;;;;;14.04;95.73;96924.41;5116817;28;20035;-73
2021/06/09 03:58:48;;;;;;;6.18;5.88;;;;;;;14.04;95.26;96929.69;5116923;28;20046;-73
2021/06/09 04:01:15;;;;;;;5.97;5.68;;;;;;;14.06;95.05;96925.78;5105687;28;20035;-73
2021/06/09 04:03:44;;;;;;;7.20;6.70;;;;;;;14.08;95.23;96925.56;5116476;28;20042;-74
2021/06/09 04:06:15;;;;;;;6.35;6.03;;;;;;;14.10;95.07;96926.13;5116871;28;20023;-73
2021/06/09 04:08:43;;;;;;;6.82;6.35;;;;;;;14.09;95.06;96930.63;5116643;28;20039;-73
2021/06/09 04:11:13;;;;;;;7.00;6.60;;;;;;;14.11;95.14;96933.84;5116771;28;20371;-73
2021/06/09 04:13:41;;;;;;;6.70;6.30;;;;;;;14.12;95.14;96930.16;5116621;28;20020;-73
2021/06/09 04:16:08;;;;;;;6.95;6.50;;;;;;;14.13;95.11;96930.94;5116289;28;20039;-73
2021/06/09 04:18:36;;;;;;;5.97;5.68;;;;;;;14.14;95.06;96930.72;5116007;28;20051;-74
2021/06/09 04:21:04;;;;;;;6.32;5.93;;;;;;;14.17;95.32;96926.81;5116339;28;20035;-74
2021/06/09 04:23:31;;;;;;;7.70;7.20;;;;;;;14.19;95.13;96933.50;5116462;28;20032;-73
2021/06/09 04:25:58;;;;;;;6.20;5.80;;;;;;;14.19;94.95;96937.94;5116125;28;20039;-73
2021/06/09 04:28:26;;;;;;;5.97;5.47;;;;;;;14.21;95.01;96946.44;5115807;28;20039;-73
2021/06/09 04:30:53;;;;;;;6.07;5.68;;;;;;;14.23;95.19;96941.75;5116616;28;20507;-73
2021/06/09 04:33:19;;;;;;;6.05;5.55;;;;;;;14.27;95.13;96942.09;5116202;28;20491;-73
2021/06/09 04:35:46;;;;;;;6.90;6.50;;;;;;;14.31;95.20;96943.25;5115284;27;20518;-73
2021/06/09 04:38:16;;;;;;;6.55;6.15;;;;;;;14.32;95.53;96936.91;5116039;28;20056;-73
2021/06/09 04:40:43;;;;;;;5.55;5.25;;;;;;;14.36;95.14;96932.78;5116087;28;20055;-73
2021/06/09 04:43:10;;;;;;;6.10;5.80;;;;;;;14.40;95.08;96933.94;5116417;28;20039;-73
2021/06/09 04:45:37;;;;;;;6.22;5.82;;;;;;;14.45;94.94;96939.34;5114670;28;20031;-73
2021/06/09 04:48:10;;;;;;;6.40;5.90;;;;;;;14.51;95.30;96948.97;5115841;27;20403;-73
2021/06/09 04:50:37;;;;;;;6.50;6.10;;;;;;;14.55;95.04;96939.59;5116204;28;20500;-73
2021/06/09 04:53:12;;;;;;;6.70;6.30;;;;;;;14.60;95.12;96946.81;5115777;28;20043;-73
2021/06/09 04:55:44;;;;;;;6.63;6.22;;;;;;;14.65;94.93;96948.75;5116101;28;20101;-73
2021/06/09 04:58:12;;;;;;;5.85;5.45;;;;;;;14.68;94.74;96938.56;5115699;28;20031;-73
2021/06/09 05:00:42;;;;;;;6.00;5.70;;;;;;;14.71;94.73;96945.19;5115789;28;20062;-76
2021/06/09 05:03:08;;;;;;;5.45;5.15;;;;;;;14.73;94.40;96946.56;5115717;28;20051;-73
2021/06/09 05:05:35;;;;;;;6.07;5.68;;;;;;;14.75;94.26;96949.00;5115732;28;20042;-73
2021/06/09 05:08:01;;;;;;;6.07;5.78;;;;;;;14.76;94.17;96943.47;5115329;28;20399;-73
2021/06/09 05:10:28;;;;;;;5.10;4.80;;;;;;;14.80;94.22;96939.34;5115864;28;20036;-73
2021/06/09 05:13:05;;;;;;;5.80;5.40;;;;;;;14.83;94.07;96943.34;5115434;27;20455;-73
2021/06/09 05:15:36;;;;;;;6.03;5.60;;;;;;;14.86;93.92;96934.16;5114969;28;20035;-73
2021/06/09 05:18:10;;;;;;;7.53;6.40;;;;;;;14.88;93.59;96946.09;5115297;28;20039;-73
2021/06/09 05:20:38;;;;;;;7.38;6.90;;;;;;;14.88;93.23;96947.94;5115241;28;20039;-73
2021/06/09 05:23:14;;;;;;;6.85;6.45;;;;;;;14.83;93.27;96948.63;5115298;28;20048;-73
2021/06/09 05:25:42;;;;;;;10.55;6.60;;;;;;;14.72;93.12;96946.78;5105583;28;20134;-73
2021/06/09 05:28:12;;;;;;;14.68;3.80;;;;;;;14.65;93.58;96949.56;5114673;28;20476;-73
2021/06/09 05:30:40;;;;;;;2.90;2.80;;;;;;;14.72;93.81;96946.78;5114804;28;20042;-74
2021/06/09 05:33:07;;;;;;;2.85;2.70;;;;;;;14.92;94.19;96949.06;5115206;27;20028;-73
2021/06/09 05:35:34;;;;;;;3.28;3.08;;;;;;;15.14;93.87;96938.66;5115301;27;20479;-73
2021/06/09 05:38:02;;;;;;;5.40;3.78;;;;;;;15.32;93.30;96935.84;5114956;28;20040;-73
2021/06/09 05:40:29;;;;;;;11.90;5.32;;;;;;;15.32;92.13;96938.50;5114698;28;20031;-73
2021/06/09 05:42:55;;;;;;;100.57;10.35;;;;;;;15.22;91.63;96941.75;5114989;28;20032;-73
2021/06/09 05:45:27;;;;;;;17.83;5.93;;;;;;;15.08;91.04;96951.00;5114633;28;20043;-73
2021/06/09 05:47:54;;;;;;;5.30;5.00;;;;;;;14.98;91.37;96946.28;5114607;28;20050;-73
2021/06/09 05:50:26;;;;;;;9.90;5.32;;;;;;;14.96;92.33;96945.72;5114683;28;20024;-73
2021/06/09 05:52:59;;;;;;;32.17;7.15;;;;;;;14.95;92.25;96948.59;5114572;28;20065;-73
2021/06/09 05:55:28;;;;;;;63.35;8.85;;;;;;;14.84;92.05;96957.34;5114828;28;20046;-73
2021/06/09 05:57:55;;;;;;;60.47;8.32;;;;;;;14.79;92.37;96953.56;5113500;28;20043;-73
2021/06/09 06:00:25;;;;;;;185.57;16.38;;;;;;;14.76;92.34;96945.31;5114696;28;20042;-73
2021/06/09 06:02:52;;;;;;;88.93;9.50;;;;;;;14.65;92.45;96959.31;5114436;28;20047;-73
2021/06/09 06:05:20;;;;;;;15.95;6.15;;;;;;;14.51;92.45;96956.91;5114312;28;20035;-73
2021/06/09 06:07:47;;;;;;;30.77;4.75;;;;;;;14.44;92.73;96963.31;5113960;28;20051;-72
2021/06/09 06:10:14;;;;;;;3.70;3.45;;;;;;;14.64;93.97;96955.88;5114232;27;20047;-73
2021/06/09 06:12:42;;;;;;;4.20;3.90;;;;;;;14.85;93.80;96958.97;5114220;28;20038;-73
2021/06/09 06:15:12;;;;;;;5.07;4.78;;;;;;;14.96;92.95;96960.78;5114587;28;20038;-72
2021/06/09 06:17:43;;;;;;;69.88;8.50;;;;;;;15.02;92.72;96950.06;5113027;28;20059;-74
2021/06/09 06:20:15;;;;;;;22.05;6.53;;;;;;;15.01;91.93;96958.22;5114045;28;20040;-73
2021/06/09 06:22:44;;;;;;;60.85;9.35;;;;;;;15.06;92.01;96962.84;5103857;28;20039;-73
2021/06/09 06:25:21;;;;;;;6.25;5.78;;;;;;;15.13;91.95;96951.09;5114016;27;20031;-73
2021/06/09 06:27:54;;;;;;;5.05;4.75;;;;;;;15.21;91.71;96963.13;5113982;28;20399;-73
2021/06/09 06:30:22;;;;;;;5.28;4.97;;;;;;;15.37;91.71;96964.22;5113967;28;20032;-73
2021/06/09 06:32:51;;;;;;;5.22;4.93;;;;;;;15.65;91.42;96962.63;5103178;28;20034;-73
2021/06/09 06:35:20;;;;;;;7.30;6.75;;;;;;;15.75;90.53;96954.91;5113889;28;20502;-73
2021/06/09 06:37:50;;;;;;;7.40;6.90;;;;;;;15.76;89.66;96959.94;5104677;28;20407;-73
2021/06/09 06:40:25;;;;;;;6.90;6.30;;;;;;;15.80;89.59;96957.63;5113255;28;20035;-73
2021/06/09 06:42:52;;;;;;;7.47;6.95;;;;;;;15.80;89.44;96962.91;5113848;27;20483;-73
2021/06/09 06:45:20;;;;;;;7.72;7.22;;;;;;;15.81;89.47;96959.22;5113837;28;20043;-73
2021/06/09 06:47:47;;;;;;;7.18;6.57;;;;;;;15.88;89.58;96967.81;5113347;28;20043;-73
2021/06/09 06:50:14;;;;;;;7.35;6.70;;;;;;;16.05;89.76;96967.03;5113519;28;20047;-73
2021/06/09 06:52:43;;;;;;;6.45;6.05;;;;;;;16.23;89.70;96962.31;5113257;28;20412;-73
2021/06/09 06:55:10;;;;;;;6.53;5.53;;;;;;;16.38;88.90;96959.09;5112987;28;20415;-73
2021/06/09 06:57:36;;;;;;;3.22;3.03;;;;;;;16.58;88.71;96958.56;5113275;28;20054;-73
2021/06/09 07:00:07;;;;;;;4.53;4.13;;;;;;;17.06;88.32;96956.31;5113665;28;20040;-74
2021/06/09 07:02:34;;;;;;;3.63;3.42;;;;;;;17.47;87.24;96953.31;5113964;28;20032;-73
2021/06/09 07:05:03;;;;;;;5.85;5.45;;;;;;;17.69;85.73;96951.44;5113542;28;20035;-73
2021/06/09 07:07:33;;;;;;;6.70;6.25;;;;;;;17.71;84.56;96949.31;5113066;28;20043;-73
2021/06/09 07:10:07;;;;;;;5.88;5.47;;;;;;;17.87;83.67;96955.63;5112661;28;20476;-74
2021/06/09 07:12:38;;;;;;;6.50;6.00;;;;;;;18.13;83.84;96958.47;5114224;28;20032;-73
2021/06/09 07:15:09;;;;;;;6.20;5.75;;;;;;;18.29;82.85;96956.72;5113567;28;20513;-73
2021/06/09 07:17:41;;;;;;;6.28;5.88;;;;;;;18.59;81.83;96954.28;5112978;28;20050;-73
2021/06/09 07:20:10;;;;;;;6.13;5.72;;;;;;;18.82;81.44;96952.31;5113162;28;20051;-74
2021/06/09 07:22:41;;;;;;;6.05;5.55;;;;;;;19.03;80.30;96951.34;5113200;28;20040;-73
2021/06/09 07:25:09;;;;;;;6.75;6.35;;;;;;;19.34;80.69;96964.78;5102327;28;20039;-73
2021/06/09 07:27:38;;;;;;;6.82;6.43;;;;;;;19.57;79.46;96957.38;5113218;28;20048;-73
2021/06/09 07:30:06;;;;;;;6.47;5.97;;;;;;;19.77;78.22;96965.41;5104655;28;20040;-74
2021/06/09 07:32:36;;;;;;;5.65;5.25;;;;;;;19.97;77.56;96958.50;5113108;28;20038;-74
2021/06/09 07:35:04;;;;;;;5.80;5.45;;;;;;;20.13;77.02;96960.13;5113021;28;20055;-73
2021/06/09 07:37:34;;;;;;;5.70;5.30;;;;;;;20.20;76.38;96962.50;5112493;28;20498;-73
2021/06/09 07:40:02;;;;;;;5.78;5.38;;;;;;;20.34;76.26;96957.47;5113134;28;20051;-73
2021/06/09 07:42:31;;;;;;;5.85;5.50;;;;;;;20.59;75.72;96962.78;5112617;28;20043;-73
2021/06/09 07:45:02;;;;;;;5.90;5.50;;;;;;;20.93;75.53;96964.81;5113233;28;20043;-74
2021/06/09 07:47:30;;;;;;;4.03;3.72;;;;;;;21.28;74.69;96958.56;5112634;28;20043;-74
2021/06/09 07:49:58;;;;;;;5.25;4.55;;;;;;;21.63;73.68;96956.03;5113381;28;20483;-73
2021/06/09 07:52:26;;;;;;;4.65;4.45;;;;;;;21.94;73.06;96966.47;5113295;28;20031;-76
2021/06/09 07:54:55;;;;;;;5.30;4.90;;;;;;;22.22;72.33;96971.06;5113331;28;20027;-75
2021/06/09 07:57:25;;;;;;;5.80;5.50;;;;;;;22.33;70.95;96953.13;5112774;28;20027;-75
2021/06/09 07:59:51;;;;;;;5.50;5.20;;;;;;;22.36;71.06;96963.22;5112188;28;20039;-76
2021/06/09 08:02:20;;;;;;;5.35;4.97;;;;;;;22.42;70.48;96966.66;5113059;28;20139;-74
2021/06/09 08:04:46;;;;;;;6.13;5.63;;;;;;;22.28;69.68;96961.97;5112772;28;20396;-75
2021/06/09 08:07:13;;;;;;;6.10;5.70;;;;;;;22.22;70.10;96963.06;5112951;28;20383;-75
2021/06/09 08:09:40;;;;;;;5.72;5.25;;;;;;;22.39;70.32;96956.53;5112416;28;20035;-75
2021/06/09 08:12:06;;;;;;;5.53;5.22;;;;;;;22.48;69.50;96963.66;5113129;28;20036;-75
2021/06/09 08:14:34;;;;;;;4.95;4.70;;;;;;;22.61;69.19;96956.06;5112636;28;20486;-75
2021/06/09 08:17:01;;;;;;;5.22;4.82;;;;;;;22.75;68.73;96956.19;5111804;28;20062;-75
2021/06/09 08:19:28;;;;;;;5.43;5.13;;;;;;;22.90;68.46;96956.00;5112501;28;20404;-76
2021/06/09 08:21:54;;;;;;;5.38;5.07;;;;;;;23.13;68.05;96959.00;5106303;28;20032;-76
2021/06/09 08:24:21;;;;;;;5.72;5.38;;;;;;;23.37;67.46;96961.63;5116039;28;20058;-76
2021/06/09 08:26:47;;;;;;;5.40;5.10;;;;;;;23.34;66.43;96962.22;5116515;28;20038;-76
2021/06/09 08:29:14;;;;;;;5.35;5.05;;;;;;;23.23;66.44;96967.69;5115813;28;20046;-75
2021/06/09 08:31:41;;;;;;;5.22;4.82;;;;;;;23.32;66.62;96956.34;5116711;28;20046;-76
2021/06/09 08:34:08;;;;;;;6.38;5.88;;;;;;;23.38;66.16;96949.84;5116131;28;20386;-76
2021/06/09 08:36:35;;;;;;;6.30;5.90;;;;;;;23.32;66.00;96962.50;5116548;27;20051;-76
2021/06/09 08:39:04;;;;;;;5.78;5.38;;;;;;;23.44;66.04;96960.19;5115635;28;20441;-76
2021/06/09 08:41:34;;;;;;;5.55;5.05;;;;;;;23.59;65.16;96961.88;5116147;28;20039;-76
2021/06/09 08:44:03;;;;;;;5.38;4.88;;;;;;;23.55;64.93;96968.09;5115721;28;20039;-75
2021/06/09 08:46:31;;;;;;;5.50;5.20;;;;;;;23.68;65.13;96962.00;5114598;28;20046;-76
2021/06/09 08:48:57;;;;;;;5.13;4.82;;;;;;;23.90;64.71;96959.56;5115809;28;20047;-75
2021/06/09 08:51:26;;;;;;;5.25;4.95;;;;;;;24.17;64.66;96962.66;5116182;28;20039;-76
2021/06/09 08:53:53;;;;;;;5.00;4.72;;;;;;;24.23;63.93;96964.97;5115880;28;20046;-76
2021/06/09 08:56:23;;;;;;;5.53;5.18;;;;;;;24.39;63.39;96959.34;5115680;27;20031;-76
2021/06/09 08:58:51;;;;;;;5.18;4.68;;;;;;;24.35;62.74;96958.34;5115695;28;20028;-76
2021/06/09 09:01:18;;;;;;;4.80;4.50;;;;;;;24.44;63.26;96957.38;5116082;28;20035;-75
2021/06/09 09:03:49;;;;;;;5.93;5.45;;;;;;;24.42;62.00;96951.50;5116134;28;20498;-76
2021/06/09 09:06:16;;;;;;;5.45;5.15;;;;;;;24.49;62.67;96956.53;5115744;28;20031;-76
2021/06/09 09:08:43;;;;;;;5.40;5.05;;;;;;;24.30;62.31;96959.22;5114993;28;20040;-76
2021/06/09 09:11:10;;;;;;;4.88;4.55;;;;;;;24.37;62.19;96958.84;5114476;28;20032;-75
2021/06/09 09:13:36;;;;;;;4.70;4.40;;;;;;;24.58;62.33;96952.06;5115602;28;20473;-75
2021/06/09 09:16:03;;;;;;;5.50;5.00;;;;;;;24.75;61.67;96948.78;5115679;28;20040;-76
2021/06/09 09:19:06;;;;;;;4.60;4.30;;;;;;;25.04;60.47;96945.81;5115062;28;20074;-75
2021/06/09 09:21:50;;;;;;;4.70;4.40;;;;;;;25.22;58.87;96930.72;5115472;28;20470;-76
2021/06/09 09:24:35;;;;;;;4.38;4.10;;;;;;;25.11;60.54;96948.91;5115249;28;20391;-75
2021/06/09 09:27:02;;;;;;;5.10;4.80;;;;;;;24.73;60.03;96944.81;5115771;28;20036;-76
2021/06/09 09:29:28;;;;;;;4.85;4.55;;;;;;;24.34;60.71;96959.41;5114666;28;20471;-76
2021/06/09 09:31:58;;;;;;;4.45;4.20;;;;;;;24.26;61.30;96948.28;5114553;28;20042;-75
2021/06/09 09:34:32;;;;;;;4.32;4.13;;;;;;;24.29;61.21;96953.03;5114884;28;20028;-75
2021/06/09 09:37:07;;;;;;;4.15;3.95;;;;;;;24.22;59.10;96947.28;5113758;28;20073;-76
2021/06/09 09:39:35;;;;;;;4.05;3.85;;;;;;;24.05;60.82;96957.75;5101435;28;20499;-75
2021/06/09 09:42:20;;;;;;;4.07;3.78;;;;;;;23.96;59.69;96946.91;5114853;28;20044;-75
2021/06/09 09:44:49;;;;;;;3.88;3.45;;;;;;;24.07;61.13;96951.00;5115418;28;20035;-75
2021/06/09 09:47:22;;;;;;;4.10;3.90;;;;;;;24.45;60.53;96950.91;5114285;28;20056;-76
2021/06/09 09:49:50;;;;;;;3.78;3.58;;;;;;;24.78;59.84;96947.41;5113364;28;20066;-76
2021/06/09 09:52:17;;;;;;;3.75;3.55;;;;;;;25.03;58.58;96941.56;5100974;28;20054;-74
2021/06/09 09:54:45;;;;;;;3.75;3.55;;;;;;;25.16;57.46;96931.09;5114358;28;20391;-73
2021/06/09 09:57:14;;;;;;;3.60;3.40;;;;;;;25.41;54.87;96919.03;5114891;28;20043;-74
2021/06/09 09:59:53;;;;;;;4.00;3.80;;;;;;;25.34;54.93;96905.25;5114210;28;20032;-73
2021/06/09 10:02:19;;;;;;;3.72;3.53;;;;;;;25.31;54.82;96901.28;5114853;28;20042;-72
2021/06/09 10:04:58;;;;;;;3.58;3.38;;;;;;;25.14;54.18;96893.03;5114380;28;20066;-74
2021/06/09 10:07:24;;;;;;;4.10;3.90;;;;;;;24.90;54.58;96896.72;5114273;28;20051;-74
2021/06/09 10:09:50;;;;;;;4.05;3.85;;;;;;;25.02;55.02;96894.34;5114539;28;20032;-74
2021/06/09 10:12:17;;;;;;;3.72;3.50;;;;;;;25.33;54.73;96895.63;5114044;28;20047;-74
2021/06/09 10:14:50;;;;;;;3.70;3.50;;;;;;;25.48;53.01;96889.91;5114367;28;20039;-74
2021/06/09 10:17:22;;;;;;;3.67;3.47;;;;;;;25.40;53.14;96890.63;5105848;28;20047;-74
2021/06/09 10:19:56;;;;;;;4.03;3.72;;;;;;;25.65;54.02;96890.03;5112977;28;20426;-74
2021/06/09 10:22:27;;;;;;;3.97;3.67;;;;;;;25.81;52.89;96879.72;5114664;28;20043;-74
2021/06/09 10:24:53;;;;;;;4.03;3.83;;;;;;;25.90;52.91;96874.44;5114378;28;20035;-74
2021/06/09 10:27:48;;;;;;;3.75;3.50;;;;;;;25.84;53.47;96878.31;5114280;28;20028;-74
2021/06/09 10:30:20;;;;;;;3.78;3.45;;;;;;;25.69;53.33;96874.88;5101269;28;20035;-74
2021/06/09 10:32:49;;;;;;;3.45;3.25;;;;;;;25.78;53.80;96877.63;5113821;28;20044;-74
2021/06/09 10:35:21;;;;;;;3.63;3.40;;;;;;;25.79;53.28;96865.81;5114065;28;20048;-74
2021/06/09 10:37:49;;;;;;;3.10;3.00;;;;;;;25.90;53.68;96869.84;5114232;28;20042;-74
2021/06/09 10:40:26;;;;;;;3.42;3.17;;;;;;;26.20;52.67;96867.47;5113813;28;20046;-73
2021/06/09 10:42:55;;;;;;;3.15;2.95;;;;;;;26.11;51.09;96856.69;5113646;28;20450;-73
2021/06/09 10:45:22;;;;;;;3.17;2.97;;;;;;;26.12;51.02;96852.91;5115053;28;20050;-73
2021/06/09 10:47:55;;;;;;;3.17;2.85;;;;;;;26.29;51.10;96860.25;5114033;28;20040;-73
2021/06/09 10:50:22;;;;;;;3.30;3.05;;;;;;;26.46;50.99;96853.38;5113513;28;20475;-75
2021/06/09 10:52:49;;;;;;;3.05;2.85;;;;;;;26.60;51.04;96856.75;5113218;28;20463;-75
2021/06/09 10:55:16;;;;;;;2.80;2.70;;;;;;;26.84;50.63;96842.91;5113637;27;20047;-75
2021/06/09 10:57:43;;;;;;;2.47;2.38;;;;;;;26.99;50.44;96848.97;5113707;28;20032;-74
2021/06/09 11:00:14;;;;;;;2.78;2.58;;;;;;;27.04;49.43;96835.34;5113420;28;20040;-75
2021/06/09 11:02:42;;;;;;;2.70;2.60;;;;;;;26.94;48.68;96828.34;5113742;28;20039;-74
2021/06/09 11:05:10;;;;;;;2.92;2.60;;;;;;;26.92;48.02;96828.69;5113582;28;20043;-76
2021/06/09 11:07:47;;;;;;;2.90;2.60;;;;;;;26.88;45.03;96791.94;5102873;28;20443;-75
2021/06/09 11:10:16;;;;;;;3.10;2.90;;;;;;;26.66;46.87;96817.84;5103256;28;20038;-75
2021/06/09 11:12:48;;;;;;;3.13;2.92;;;;;;;26.28;46.43;96809.47;5113907;28;20035;-76
2021/06/09 11:15:17;;;;;;;2.80;2.60;;;;;;;25.94;47.61;96828.94;5113701;28;20036;-76
2021/06/09 11:17:56;;;;;;;3.00;2.70;;;;;;;25.73;48.13;96824.81;5113312;28;20723;-76
2021/06/09 11:20:22;;;;;;;2.60;2.40;;;;;;;25.54;48.53;96834.97;5113978;28;20048;-76
2021/06/09 11:22:53;;;;;;;2.70;2.50;;;;;;;25.39;48.79;96835.31;5113659;28;20027;-76
2021/06/09 11:25:33;;;;;;;2.58;2.38;;;;;;;25.37;49.67;96841.00;5113277;28;20028;-76
2021/06/09 11:28:03;;;;;;;2.63;2.42;;;;;;;25.32;49.40;96838.44;5113561;28;20035;-76
2021/06/09 11:30:30;;;;;;;2.78;2.58;;;;;;;25.27;49.54;96846.59;5113308;28;20042;-76
2021/06/09 11:32:59;;;;;;;2.80;2.60;;;;;;;25.24;49.76;96841.81;5113140;28;20480;-76
2021/06/09 11:35:48;;;;;;;2.88;2.67;;;;;;;25.17;50.63;96854.84;5113369;28;20415;-76
2021/06/09 11:38:14;;;;;;;2.65;2.45;;;;;;;25.05;50.17;96847.31;5113613;28;20399;-76
2021/06/09 11:41:05;;;;;;;2.70;2.60;;;;;;;24.99;50.44;96846.66;5113188;28;20027;-76
2021/06/09 11:43:37;;;;;;;2.97;2.78;;;;;;;25.06;50.15;96840.88;5113443;28;20046;-76
2021/06/09 11:46:08;;;;;;;2.75;2.55;;;;;;;25.12;49.46;96835.06;5113251;28;20044;-76